sensor_id;sensor_type;location;lat;lon;timestamp;temperature;humidity
37646;DHT22;23489;49.600;6.138;2023-12-07T00:01:19;2.90;99.90
37646;DHT22;23489;49.600;6.138;2023-12-07T00:03:45;2.90;99.90
37646;DHT22;23489;49.600;6.138;2023-12-07T00:06:11;2.90;99.90
37646;DHT22;23489;49.600;6.138;2023-12-07T00:08:36;2.90;99.90
37646;DHT22;23489;49.600;6.138;2023-12-07T00:11:02;2.80;99.90
37646;DHT22;23489;49.600;6.138;2023-12-07T00:13:27;2.80;99.90
37646;DHT22;23489;49.600;6.138;2023-12-07T00:15:53;2.80;99.90
37646;DHT22;23489;49.600;6.138;2023-12-07T00:18:19;2.90;99.90
37646;DHT22;23489;49.600;6.138;2023-12-07T00:20:45;2.90;99.90
37646;DHT22;23489;49.600;6.138;2023-12-07T00:23:10;2.90;99.90
37646;DHT22;23489;49.600;6.138;2023-12-07T00:25:36;2.90;99.90
37646;DHT22;23489;49.600;6.138;2023-12-07T00:28:02;2.90;99.90
37646;DHT22;23489;49.600;6.138;2023-12-07T00:30:29;2.90;99.90
37646;DHT22;23489;49.600;6.138;2023-12-07T00:32:54;2.90;99.90
37646;DHT22;23489;49.600;6.138;2023-12-07T00:35:21;2.90;99.90
37646;DHT22;23489;49.600;6.138;2023-12-07T00:37:48;2.90;99.90
37646;DHT22;23489;49.600;6.138;2023-12-07T00:40:13;2.90;99.90
37646;DHT22;23489;49.600;6.138;2023-12-07T00:42:40;2.80;99.90
37646;DHT22;23489;49.600;6.138;2023-12-07T00:45:06;2.80;99.90
37646;DHT22;23489;49.600;6.138;2023-12-07T00:47:31;2.90;99.90
37646;DHT22;23489;49.600;6.138;2023-12-07T00:49:57;2.90;99.90
37646;DHT22;23489;49.600;6.138;2023-12-07T00:52:22;2.90;99.90
37646;DHT22;23489;49.600;6.138;2023-12-07T00:54:48;2.90;99.90
37646;DHT22;23489;49.600;6.138;2023-12-07T00:57:14;2.90;99.90
37646;DHT22;23489;49.600;6.138;2023-12-07T00:59:39;2.90;99.90
37646;DHT22;23489;49.600;6.138;2023-12-07T01:02:06;2.80;99.90
37646;DHT22;23489;49.600;6.138;2023-12-07T01:04:32;2.80;99.90
37646;DHT22;23489;49.600;6.138;2023-12-07T01:06:58;2.80;99.90
37646;DHT22;23489;49.600;6.138;2023-12-07T01:09:25;2.80;99.90
37646;DHT22;23489;49.600;6.138;2023-12-07T01:11:50;2.80;99.90
37646;DHT22;23489;49.600;6.138;2023-12-07T01:14:17;2.70;99.90
37646;DHT22;23489;49.600;6.138;2023-12-07T01:16:43;2.70;99.90
37646;DHT22;23489;49.600;6.138;2023-12-07T01:19:09;2.70;99.90
37646;DHT22;23489;49.600;6.138;2023-12-07T01:21:35;2.70;99.90
37646;DHT22;23489;49.600;6.138;2023-12-07T01:24:01;2.70;99.90
37646;DHT22;23489;49.600;6.138;2023-12-07T01:26:27;2.70;99.90
37646;DHT22;23489;49.600;6.138;2023-12-07T01:28:53;2.60;99.90
37646;DHT22;23489;49.600;6.138;2023-12-07T01:31:19;2.60;99.90
37646;DHT22;23489;49.600;6.138;2023-12-07T01:33:44;2.60;99.90
37646;DHT22;23489;49.600;6.138;2023-12-07T01:36:10;2.60;99.90
37646;DHT22;23489;49.600;6.138;2023-12-07T01:38:36;2.60;99.90
37646;DHT22;23489;49.600;6.138;2023-12-07T01:41:02;2.60;99.90
37646;DHT22;23489;49.600;6.138;2023-12-07T01:43:28;2.60;99.90
37646;DHT22;23489;49.600;6.138;2023-12-07T01:45:56;2.60;99.90
37646;DHT22;23489;49.600;6.138;2023-12-07T01:48:24;2.60;99.90
37646;DHT22;23489;49.600;6.138;2023-12-07T01:50:50;2.60;99.90
37646;DHT22;23489;49.600;6.138;2023-12-07T01:53:17;2.70;99.90
37646;DHT22;23489;49.600;6.138;2023-12-07T01:55:43;2.60;99.90
37646;DHT22;23489;49.600;6.138;2023-12-07T01:58:10;2.60;99.90
37646;DHT22;23489;49.600;6.138;2023-12-07T02:00:35;2.50;99.90
37646;DHT22;23489;49.600;6.138;2023-12-07T02:03:04;2.50;99.90
37646;DHT22;23489;49.600;6.138;2023-12-07T02:05:31;2.50;99.90
37646;DHT22;23489;49.600;6.138;2023-12-07T02:07:57;2.50;99.90
37646;DHT22;23489;49.600;6.138;2023-12-07T02:10:24;2.50;99.90
37646;DHT22;23489;49.600;6.138;2023-12-07T02:12:50;2.50;99.90
37646;DHT22;23489;49.600;6.138;2023-12-07T02:15:16;2.50;99.90
37646;DHT22;23489;49.600;6.138;2023-12-07T02:17:55;2.50;99.90
37646;DHT22;23489;49.600;6.138;2023-12-07T02:20:28;2.50;99.90
37646;DHT22;23489;49.600;6.138;2023-12-07T02:22:56;2.50;99.90
37646;DHT22;23489;49.600;6.138;2023-12-07T02:29:12;2.50;99.90
37646;DHT22;23489;49.600;6.138;2023-12-07T02:31:38;2.50;99.90
37646;DHT22;23489;49.600;6.138;2023-12-07T02:34:03;2.40;99.90
37646;DHT22;23489;49.600;6.138;2023-12-07T02:36:32;2.30;99.90
37646;DHT22;23489;49.600;6.138;2023-12-07T02:38:59;2.30;99.90
37646;DHT22;23489;49.600;6.138;2023-12-07T02:41:28;2.20;99.90
37646;DHT22;23489;49.600;6.138;2023-12-07T02:43:56;2.20;99.90
37646;DHT22;23489;49.600;6.138;2023-12-07T02:46:26;2.10;99.90
37646;DHT22;23489;49.600;6.138;2023-12-07T02:48:51;2.10;99.90
37646;DHT22;23489;49.600;6.138;2023-12-07T02:51:17;2.00;99.90
37646;DHT22;23489;49.600;6.138;2023-12-07T02:53:43;2.00;99.90
37646;DHT22;23489;49.600;6.138;2023-12-07T02:56:08;2.00;99.90
37646;DHT22;23489;49.600;6.138;2023-12-07T02:58:34;2.00;99.90
37646;DHT22;23489;49.600;6.138;2023-12-07T03:01:00;2.10;99.90
37646;DHT22;23489;49.600;6.138;2023-12-07T03:03:25;2.00;99.90
37646;DHT22;23489;49.600;6.138;2023-12-07T03:05:51;2.00;99.90
37646;DHT22;23489;49.600;6.138;2023-12-07T03:08:17;2.10;99.90
37646;DHT22;23489;49.600;6.138;2023-12-07T03:10:42;2.10;99.90
37646;DHT22;23489;49.600;6.138;2023-12-07T03:13:08;2.20;99.90
37646;DHT22;23489;49.600;6.138;2023-12-07T03:15:34;2.10;99.90
37646;DHT22;23489;49.600;6.138;2023-12-07T03:17:59;2.10;99.90
37646;DHT22;23489;49.600;6.138;2023-12-07T03:20:25;2.10;99.90
37646;DHT22;23489;49.600;6.138;2023-12-07T03:22:50;2.10;99.90
37646;DHT22;23489;49.600;6.138;2023-12-07T03:25:16;2.10;99.90
37646;DHT22;23489;49.600;6.138;2023-12-07T03:27:42;2.10;99.90
37646;DHT22;23489;49.600;6.138;2023-12-07T03:30:08;2.10;99.90
37646;DHT22;23489;49.600;6.138;2023-12-07T03:32:33;2.10;99.90
37646;DHT22;23489;49.600;6.138;2023-12-07T03:34:59;2.00;99.90
37646;DHT22;23489;49.600;6.138;2023-12-07T03:37:24;2.00;99.90
37646;DHT22;23489;49.600;6.138;2023-12-07T03:39:50;2.00;99.90
37646;DHT22;23489;49.600;6.138;2023-12-07T03:42:16;2.10;99.90
37646;DHT22;23489;49.600;6.138;2023-12-07T03:44:41;2.10;99.90
37646;DHT22;23489;49.600;6.138;2023-12-07T03:47:09;2.00;99.90
37646;DHT22;23489;49.600;6.138;2023-12-07T03:49:34;2.00;99.90
37646;DHT22;23489;49.600;6.138;2023-12-07T03:52:01;1.90;99.90
37646;DHT22;23489;49.600;6.138;2023-12-07T03:54:26;1.90;99.90
37646;DHT22;23489;49.600;6.138;2023-12-07T03:56:52;1.90;99.90
37646;DHT22;23489;49.600;6.138;2023-12-07T03:59:18;1.90;99.90
37646;DHT22;23489;49.600;6.138;2023-12-07T04:01:43;1.90;99.90
37646;DHT22;23489;49.600;6.138;2023-12-07T04:04:09;1.90;99.90
37646;DHT22;23489;49.600;6.138;2023-12-07T04:06:35;1.90;99.90
37646;DHT22;23489;49.600;6.138;2023-12-07T04:09:00;1.90;99.90
37646;DHT22;23489;49.600;6.138;2023-12-07T04:11:26;1.90;99.90
37646;DHT22;23489;49.600;6.138;2023-12-07T04:13:52;2.00;99.90
37646;DHT22;23489;49.600;6.138;2023-12-07T04:16:17;2.00;99.90
37646;DHT22;23489;49.600;6.138;2023-12-07T04:18:43;1.90;99.90
37646;DHT22;23489;49.600;6.138;2023-12-07T04:21:09;1.90;99.90
37646;DHT22;23489;49.600;6.138;2023-12-07T04:23:34;1.80;99.90
37646;DHT22;23489;49.600;6.138;2023-12-07T04:26:00;1.80;99.90
37646;DHT22;23489;49.600;6.138;2023-12-07T04:28:26;1.80;99.90
37646;DHT22;23489;49.600;6.138;2023-12-07T04:30:51;1.80;99.90
37646;DHT22;23489;49.600;6.138;2023-12-07T04:33:18;1.80;99.90
37646;DHT22;23489;49.600;6.138;2023-12-07T04:35:43;1.70;99.90
37646;DHT22;23489;49.600;6.138;2023-12-07T04:38:09;1.70;99.90
37646;DHT22;23489;49.600;6.138;2023-12-07T04:40:34;1.70;99.90
37646;DHT22;23489;49.600;6.138;2023-12-07T04:43:00;1.80;99.90
37646;DHT22;23489;49.600;6.138;2023-12-07T04:45:26;1.80;99.90
37646;DHT22;23489;49.600;6.138;2023-12-07T04:47:51;1.80;99.90
37646;DHT22;23489;49.600;6.138;2023-12-07T04:50:17;1.80;99.90
37646;DHT22;23489;49.600;6.138;2023-12-07T04:52:43;1.80;99.90
37646;DHT22;23489;49.600;6.138;2023-12-07T04:55:08;1.80;99.90
37646;DHT22;23489;49.600;6.138;2023-12-07T04:57:35;1.80;99.90
37646;DHT22;23489;49.600;6.138;2023-12-07T05:00:01;1.80;99.90
37646;DHT22;23489;49.600;6.138;2023-12-07T05:02:31;1.80;99.90
37646;DHT22;23489;49.600;6.138;2023-12-07T05:04:57;1.70;99.90
37646;DHT22;23489;49.600;6.138;2023-12-07T05:07:23;1.80;99.90
37646;DHT22;23489;49.600;6.138;2023-12-07T05:09:49;1.70;99.90
37646;DHT22;23489;49.600;6.138;2023-12-07T05:12:16;1.70;99.90
37646;DHT22;23489;49.600;6.138;2023-12-07T05:14:42;1.70;99.90
37646;DHT22;23489;49.600;6.138;2023-12-07T05:17:08;1.70;99.90
37646;DHT22;23489;49.600;6.138;2023-12-07T05:19:33;1.70;99.90
37646;DHT22;23489;49.600;6.138;2023-12-07T05:21:59;1.60;99.90
37646;DHT22;23489;49.600;6.138;2023-12-07T05:24:25;1.60;99.90
37646;DHT22;23489;49.600;6.138;2023-12-07T05:26:51;1.60;99.90
37646;DHT22;23489;49.600;6.138;2023-12-07T05:29:17;1.60;99.90
37646;DHT22;23489;49.600;6.138;2023-12-07T05:31:43;1.60;99.90
37646;DHT22;23489;49.600;6.138;2023-12-07T05:34:09;1.70;99.90
37646;DHT22;23489;49.600;6.138;2023-12-07T05:36:34;1.60;99.90
37646;DHT22;23489;49.600;6.138;2023-12-07T05:39:00;1.70;99.90
37646;DHT22;23489;49.600;6.138;2023-12-07T05:41:26;1.60;99.90
37646;DHT22;23489;49.600;6.138;2023-12-07T05:43:52;1.60;99.90
37646;DHT22;23489;49.600;6.138;2023-12-07T05:46:18;1.50;99.90
37646;DHT22;23489;49.600;6.138;2023-12-07T05:48:44;1.50;99.90
37646;DHT22;23489;49.600;6.138;2023-12-07T05:51:14;1.50;99.90
37646;DHT22;23489;49.600;6.138;2023-12-07T05:53:40;1.50;99.90
37646;DHT22;23489;49.600;6.138;2023-12-07T05:56:06;1.50;99.90
37646;DHT22;23489;49.600;6.138;2023-12-07T05:58:32;1.60;99.90
37646;DHT22;23489;49.600;6.138;2023-12-07T06:00:58;1.60;99.90
37646;DHT22;23489;49.600;6.138;2023-12-07T06:03:25;1.50;99.90
37646;DHT22;23489;49.600;6.138;2023-12-07T06:05:51;1.40;99.90
37646;DHT22;23489;49.600;6.138;2023-12-07T06:08:17;1.40;99.90
37646;DHT22;23489;49.600;6.138;2023-12-07T06:10:43;1.40;99.90
37646;DHT22;23489;49.600;6.138;2023-12-07T06:13:09;1.30;99.90
37646;DHT22;23489;49.600;6.138;2023-12-07T06:15:34;1.30;99.90
37646;DHT22;23489;49.600;6.138;2023-12-07T06:18:00;1.30;99.90
37646;DHT22;23489;49.600;6.138;2023-12-07T06:20:26;1.30;99.90
37646;DHT22;23489;49.600;6.138;2023-12-07T06:22:52;1.30;99.90
37646;DHT22;23489;49.600;6.138;2023-12-07T06:25:17;1.40;99.90
37646;DHT22;23489;49.600;6.138;2023-12-07T06:27:43;1.40;99.90
37646;DHT22;23489;49.600;6.138;2023-12-07T06:30:10;1.40;99.90
37646;DHT22;23489;49.600;6.138;2023-12-07T06:32:36;1.40;99.90
37646;DHT22;23489;49.600;6.138;2023-12-07T06:35:02;1.40;99.90
37646;DHT22;23489;49.600;6.138;2023-12-07T06:37:30;1.40;99.90
37646;DHT22;23489;49.600;6.138;2023-12-07T06:39:55;1.40;99.90
37646;DHT22;23489;49.600;6.138;2023-12-07T06:42:21;2.00;99.90
37646;DHT22;23489;49.600;6.138;2023-12-07T06:44:47;1.80;99.90
37646;DHT22;23489;49.600;6.138;2023-12-07T06:47:16;1.70;99.90
37646;DHT22;23489;49.600;6.138;2023-12-07T06:49:42;1.80;99.90
37646;DHT22;23489;49.600;6.138;2023-12-07T06:52:07;1.60;99.90
37646;DHT22;23489;49.600;6.138;2023-12-07T06:54:34;1.50;99.90
37646;DHT22;23489;49.600;6.138;2023-12-07T06:57:00;1.30;99.90
37646;DHT22;23489;49.600;6.138;2023-12-07T06:59:25;1.30;99.90
37646;DHT22;23489;49.600;6.138;2023-12-07T07:01:51;1.20;99.90
37646;DHT22;23489;49.600;6.138;2023-12-07T07:04:17;1.20;99.90
37646;DHT22;23489;49.600;6.138;2023-12-07T07:06:42;1.10;99.90
37646;DHT22;23489;49.600;6.138;2023-12-07T07:09:09;1.10;99.90
37646;DHT22;23489;49.600;6.138;2023-12-07T07:11:35;1.20;99.90
37646;DHT22;23489;49.600;6.138;2023-12-07T07:14:02;1.20;99.90
37646;DHT22;23489;49.600;6.138;2023-12-07T07:16:28;1.30;99.90
37646;DHT22;23489;49.600;6.138;2023-12-07T07:18:53;1.30;99.90
37646;DHT22;23489;49.600;6.138;2023-12-07T07:21:19;1.20;99.90
37646;DHT22;23489;49.600;6.138;2023-12-07T07:23:45;1.20;99.90
37646;DHT22;23489;49.600;6.138;2023-12-07T07:26:11;1.20;99.90
37646;DHT22;23489;49.600;6.138;2023-12-07T07:28:37;1.20;99.90
37646;DHT22;23489;49.600;6.138;2023-12-07T07:31:03;1.10;99.90
37646;DHT22;23489;49.600;6.138;2023-12-07T07:33:29;1.20;99.90
37646;DHT22;23489;49.600;6.138;2023-12-07T07:35:55;1.20;99.90
37646;DHT22;23489;49.600;6.138;2023-12-07T07:38:20;1.20;99.90
37646;DHT22;23489;49.600;6.138;2023-12-07T07:40:46;1.20;99.90
37646;DHT22;23489;49.600;6.138;2023-12-07T07:43:14;1.20;99.90
37646;DHT22;23489;49.600;6.138;2023-12-07T07:45:39;1.20;99.90
37646;DHT22;23489;49.600;6.138;2023-12-07T07:48:05;1.30;99.90
37646;DHT22;23489;49.600;6.138;2023-12-07T07:50:31;1.60;99.90
37646;DHT22;23489;49.600;6.138;2023-12-07T07:52:57;1.60;99.90
37646;DHT22;23489;49.600;6.138;2023-12-07T07:55:23;1.60;99.90
37646;DHT22;23489;49.600;6.138;2023-12-07T07:57:48;1.80;99.90
37646;DHT22;23489;49.600;6.138;2023-12-07T08:00:14;1.70;99.90
37646;DHT22;23489;49.600;6.138;2023-12-07T08:02:40;1.70;99.90
37646;DHT22;23489;49.600;6.138;2023-12-07T08:05:06;1.70;99.90
37646;DHT22;23489;49.600;6.138;2023-12-07T08:07:32;1.70;99.90
37646;DHT22;23489;49.600;6.138;2023-12-07T08:09:57;1.60;99.90
37646;DHT22;23489;49.600;6.138;2023-12-07T08:12:23;1.60;99.90
37646;DHT22;23489;49.600;6.138;2023-12-07T08:14:49;1.50;99.90
37646;DHT22;23489;49.600;6.138;2023-12-07T08:17:14;1.50;99.90
37646;DHT22;23489;49.600;6.138;2023-12-07T08:19:42;1.50;99.90
37646;DHT22;23489;49.600;6.138;2023-12-07T08:22:08;1.40;99.90
37646;DHT22;23489;49.600;6.138;2023-12-07T08:24:34;1.40;99.90
37646;DHT22;23489;49.600;6.138;2023-12-07T08:26:59;1.30;99.90
37646;DHT22;23489;49.600;6.138;2023-12-07T08:29:25;1.30;99.90
37646;DHT22;23489;49.600;6.138;2023-12-07T08:31:51;1.10;99.90
37646;DHT22;23489;49.600;6.138;2023-12-07T08:34:16;1.10;99.90
37646;DHT22;23489;49.600;6.138;2023-12-07T08:36:42;1.10;99.90
37646;DHT22;23489;49.600;6.138;2023-12-07T08:39:08;1.20;99.90
37646;DHT22;23489;49.600;6.138;2023-12-07T08:41:37;1.10;99.90
37646;DHT22;23489;49.600;6.138;2023-12-07T08:44:04;1.00;99.90
37646;DHT22;23489;49.600;6.138;2023-12-07T08:46:29;1.10;99.90
37646;DHT22;23489;49.600;6.138;2023-12-07T08:48:55;1.10;99.90
37646;DHT22;23489;49.600;6.138;2023-12-07T08:51:21;1.40;99.90
37646;DHT22;23489;49.600;6.138;2023-12-07T08:53:47;1.50;99.90
37646;DHT22;23489;49.600;6.138;2023-12-07T08:56:13;1.40;99.90
37646;DHT22;23489;49.600;6.138;2023-12-07T08:58:39;1.40;99.90
37646;DHT22;23489;49.600;6.138;2023-12-07T09:01:05;1.30;99.90
37646;DHT22;23489;49.600;6.138;2023-12-07T09:03:33;1.20;99.90
37646;DHT22;23489;49.600;6.138;2023-12-07T09:06:00;1.20;99.90
37646;DHT22;23489;49.600;6.138;2023-12-07T09:08:26;1.20;99.90
37646;DHT22;23489;49.600;6.138;2023-12-07T09:10:51;1.30;99.90
37646;DHT22;23489;49.600;6.138;2023-12-07T09:13:18;1.30;99.90
37646;DHT22;23489;49.600;6.138;2023-12-07T09:15:44;1.30;99.90
37646;DHT22;23489;49.600;6.138;2023-12-07T09:18:10;1.50;99.90
37646;DHT22;23489;49.600;6.138;2023-12-07T09:20:39;1.40;99.90
37646;DHT22;23489;49.600;6.138;2023-12-07T09:23:14;1.50;99.90
37646;DHT22;23489;49.600;6.138;2023-12-07T09:25:41;1.30;99.90
37646;DHT22;23489;49.600;6.138;2023-12-07T09:28:07;1.20;99.90
37646;DHT22;23489;49.600;6.138;2023-12-07T09:30:32;1.20;99.90
37646;DHT22;23489;49.600;6.138;2023-12-07T09:32:59;1.00;99.90
37646;DHT22;23489;49.600;6.138;2023-12-07T09:35:25;1.00;99.90
37646;DHT22;23489;49.600;6.138;2023-12-07T09:37:51;0.90;99.90
37646;DHT22;23489;49.600;6.138;2023-12-07T09:40:17;1.00;99.90
37646;DHT22;23489;49.600;6.138;2023-12-07T09:42:43;1.00;99.90
37646;DHT22;23489;49.600;6.138;2023-12-07T09:45:10;1.10;99.90
37646;DHT22;23489;49.600;6.138;2023-12-07T09:47:37;1.10;99.90
37646;DHT22;23489;49.600;6.138;2023-12-07T09:50:06;1.00;99.90
37646;DHT22;23489;49.600;6.138;2023-12-07T09:52:32;1.10;99.90
37646;DHT22;23489;49.600;6.138;2023-12-07T09:54:59;1.10;99.90
37646;DHT22;23489;49.600;6.138;2023-12-07T09:57:24;1.20;99.90
37646;DHT22;23489;49.600;6.138;2023-12-07T09:59:50;1.20;99.90
37646;DHT22;23489;49.600;6.138;2023-12-07T10:02:16;1.30;99.90
37646;DHT22;23489;49.600;6.138;2023-12-07T10:04:41;1.40;99.90
37646;DHT22;23489;49.600;6.138;2023-12-07T10:07:07;1.50;99.90
37646;DHT22;23489;49.600;6.138;2023-12-07T10:09:40;1.40;99.90
37646;DHT22;23489;49.600;6.138;2023-12-07T10:12:06;1.40;99.90
37646;DHT22;23489;49.600;6.138;2023-12-07T10:14:33;1.40;99.90
37646;DHT22;23489;49.600;6.138;2023-12-07T10:16:59;1.50;99.90
37646;DHT22;23489;49.600;6.138;2023-12-07T10:19:25;1.60;99.90
37646;DHT22;23489;49.600;6.138;2023-12-07T10:21:53;1.70;99.90
37646;DHT22;23489;49.600;6.138;2023-12-07T10:24:20;1.70;99.90
37646;DHT22;23489;49.600;6.138;2023-12-07T10:26:47;1.90;99.90
37646;DHT22;23489;49.600;6.138;2023-12-07T10:29:12;1.90;99.90
37646;DHT22;23489;49.600;6.138;2023-12-07T10:31:38;1.90;99.90
37646;DHT22;23489;49.600;6.138;2023-12-07T10:34:05;1.90;99.90
37646;DHT22;23489;49.600;6.138;2023-12-07T10:36:31;1.90;99.90
37646;DHT22;23489;49.600;6.138;2023-12-07T10:38:58;1.80;99.90
37646;DHT22;23489;49.600;6.138;2023-12-07T10:41:24;1.90;99.90
37646;DHT22;23489;49.600;6.138;2023-12-07T10:43:53;2.00;99.90
37646;DHT22;23489;49.600;6.138;2023-12-07T10:46:21;2.10;99.90
37646;DHT22;23489;49.600;6.138;2023-12-07T10:48:48;2.20;99.90
37646;DHT22;23489;49.600;6.138;2023-12-07T10:51:37;2.30;99.90
37646;DHT22;23489;49.600;6.138;2023-12-07T10:54:07;2.50;99.90
37646;DHT22;23489;49.600;6.138;2023-12-07T10:56:44;2.70;99.90
37646;DHT22;23489;49.600;6.138;2023-12-07T10:59:10;2.80;99.90
37646;DHT22;23489;49.600;6.138;2023-12-07T11:01:39;2.70;99.90
37646;DHT22;23489;49.600;6.138;2023-12-07T11:04:06;2.70;99.90
37646;DHT22;23489;49.600;6.138;2023-12-07T11:06:32;2.70;99.90
37646;DHT22;23489;49.600;6.138;2023-12-07T11:09:06;2.70;99.90
37646;DHT22;23489;49.600;6.138;2023-12-07T11:11:52;2.70;99.90
37646;DHT22;23489;49.600;6.138;2023-12-07T11:14:20;2.60;99.90
37646;DHT22;23489;49.600;6.138;2023-12-07T11:16:47;2.60;99.90
37646;DHT22;23489;49.600;6.138;2023-12-07T11:22:10;2.50;99.90
37646;DHT22;23489;49.600;6.138;2023-12-07T11:24:37;2.50;99.90
37646;DHT22;23489;49.600;6.138;2023-12-07T11:27:03;2.60;99.90
37646;DHT22;23489;49.600;6.138;2023-12-07T11:29:29;2.60;99.90
37646;DHT22;23489;49.600;6.138;2023-12-07T11:31:55;2.80;99.90
37646;DHT22;23489;49.600;6.138;2023-12-07T11:34:40;2.80;99.90
37646;DHT22;23489;49.600;6.138;2023-12-07T11:37:07;2.80;99.90
37646;DHT22;23489;49.600;6.138;2023-12-07T11:39:37;2.80;99.90
37646;DHT22;23489;49.600;6.138;2023-12-07T11:42:07;2.80;99.90
37646;DHT22;23489;49.600;6.138;2023-12-07T11:44:37;2.80;99.90
37646;DHT22;23489;49.600;6.138;2023-12-07T11:47:04;3.00;99.90
37646;DHT22;23489;49.600;6.138;2023-12-07T11:49:31;3.10;99.90
37646;DHT22;23489;49.600;6.138;2023-12-07T11:51:58;3.00;99.90
37646;DHT22;23489;49.600;6.138;2023-12-07T11:54:28;3.10;99.90
37646;DHT22;23489;49.600;6.138;2023-12-07T11:56:57;3.00;99.90
37646;DHT22;23489;49.600;6.138;2023-12-07T11:59:23;2.90;99.90
37646;DHT22;23489;49.600;6.138;2023-12-07T12:01:51;2.80;99.90
37646;DHT22;23489;49.600;6.138;2023-12-07T12:04:17;2.90;99.90
37646;DHT22;23489;49.600;6.138;2023-12-07T12:06:45;2.80;99.90
37646;DHT22;23489;49.600;6.138;2023-12-07T12:09:14;2.90;99.90
37646;DHT22;23489;49.600;6.138;2023-12-07T12:11:47;2.90;99.90
37646;DHT22;23489;49.600;6.138;2023-12-07T12:14:16;2.80;99.90
37646;DHT22;23489;49.600;6.138;2023-12-07T12:16:43;2.80;99.90
37646;DHT22;23489;49.600;6.138;2023-12-07T12:19:10;2.80;99.90
37646;DHT22;23489;49.600;6.138;2023-12-07T12:21:37;2.80;99.90
37646;DHT22;23489;49.600;6.138;2023-12-07T12:24:07;2.80;99.90
37646;DHT22;23489;49.600;6.138;2023-12-07T12:26:37;2.80;99.90
37646;DHT22;23489;49.600;6.138;2023-12-07T12:29:04;2.80;99.90
37646;DHT22;23489;49.600;6.138;2023-12-07T12:31:31;2.80;99.90
37646;DHT22;23489;49.600;6.138;2023-12-07T12:33:56;2.80;99.90
37646;DHT22;23489;49.600;6.138;2023-12-07T12:36:22;2.90;99.90
37646;DHT22;23489;49.600;6.138;2023-12-07T12:38:52;2.80;99.90
37646;DHT22;23489;49.600;6.138;2023-12-07T12:41:19;2.70;99.90
37646;DHT22;23489;49.600;6.138;2023-12-07T12:43:45;2.80;99.90
37646;DHT22;23489;49.600;6.138;2023-12-07T12:46:12;2.90;99.90
37646;DHT22;23489;49.600;6.138;2023-12-07T12:48:37;3.00;99.90
37646;DHT22;23489;49.600;6.138;2023-12-07T12:51:17;3.00;99.90
37646;DHT22;23489;49.600;6.138;2023-12-07T12:53:44;3.10;99.90
37646;DHT22;23489;49.600;6.138;2023-12-07T12:56:10;3.10;99.90
37646;DHT22;23489;49.600;6.138;2023-12-07T12:58:36;3.10;99.90
37646;DHT22;23489;49.600;6.138;2023-12-07T13:01:02;3.20;99.90
37646;DHT22;23489;49.600;6.138;2023-12-07T13:03:29;3.20;99.90
37646;DHT22;23489;49.600;6.138;2023-12-07T13:05:54;3.10;99.90
37646;DHT22;23489;49.600;6.138;2023-12-07T13:08:20;3.00;99.90
37646;DHT22;23489;49.600;6.138;2023-12-07T13:10:46;3.10;99.90
37646;DHT22;23489;49.600;6.138;2023-12-07T13:13:12;3.10;99.90
37646;DHT22;23489;49.600;6.138;2023-12-07T13:15:37;3.10;99.90
37646;DHT22;23489;49.600;6.138;2023-12-07T13:18:03;3.10;99.90
37646;DHT22;23489;49.600;6.138;2023-12-07T13:20:31;3.00;99.90
37646;DHT22;23489;49.600;6.138;2023-12-07T13:22:56;3.10;99.90
37646;DHT22;23489;49.600;6.138;2023-12-07T13:25:22;3.00;99.90
37646;DHT22;23489;49.600;6.138;2023-12-07T13:27:47;3.00;99.90
37646;DHT22;23489;49.600;6.138;2023-12-07T13:30:13;2.90;99.90
37646;DHT22;23489;49.600;6.138;2023-12-07T13:32:39;2.80;99.90
37646;DHT22;23489;49.600;6.138;2023-12-07T13:35:08;2.90;99.90
37646;DHT22;23489;49.600;6.138;2023-12-07T13:37:34;2.90;99.90
37646;DHT22;23489;49.600;6.138;2023-12-07T13:39:59;2.90;99.90
37646;DHT22;23489;49.600;6.138;2023-12-07T13:42:27;2.90;99.90
37646;DHT22;23489;49.600;6.138;2023-12-07T13:44:54;2.80;99.90
37646;DHT22;23489;49.600;6.138;2023-12-07T13:47:22;2.80;99.90
37646;DHT22;23489;49.600;6.138;2023-12-07T13:49:51;2.80;99.90
37646;DHT22;23489;49.600;6.138;2023-12-07T13:52:17;2.90;99.90
37646;DHT22;23489;49.600;6.138;2023-12-07T13:54:43;2.90;99.90
37646;DHT22;23489;49.600;6.138;2023-12-07T13:57:08;2.80;99.90
37646;DHT22;23489;49.600;6.138;2023-12-07T13:59:35;2.80;99.90
37646;DHT22;23489;49.600;6.138;2023-12-07T14:02:02;2.80;99.90
37646;DHT22;23489;49.600;6.138;2023-12-07T14:04:28;2.80;99.90
37646;DHT22;23489;49.600;6.138;2023-12-07T14:06:53;2.80;99.90
37646;DHT22;23489;49.600;6.138;2023-12-07T14:09:19;2.80;99.90
37646;DHT22;23489;49.600;6.138;2023-12-07T14:11:45;2.70;99.90
37646;DHT22;23489;49.600;6.138;2023-12-07T14:14:11;2.70;99.90
37646;DHT22;23489;49.600;6.138;2023-12-07T14:16:38;2.70;99.90
37646;DHT22;23489;49.600;6.138;2023-12-07T14:19:05;2.60;99.90
37646;DHT22;23489;49.600;6.138;2023-12-07T14:21:31;2.70;99.90
37646;DHT22;23489;49.600;6.138;2023-12-07T14:23:56;2.70;99.90
37646;DHT22;23489;49.600;6.138;2023-12-07T14:26:23;2.60;99.90
37646;DHT22;23489;49.600;6.138;2023-12-07T14:28:49;2.60;99.90
37646;DHT22;23489;49.600;6.138;2023-12-07T14:31:14;2.60;99.90
37646;DHT22;23489;49.600;6.138;2023-12-07T14:33:43;2.50;99.90
37646;DHT22;23489;49.600;6.138;2023-12-07T14:36:10;2.60;99.90
37646;DHT22;23489;49.600;6.138;2023-12-07T14:38:37;2.60;99.90
37646;DHT22;23489;49.600;6.138;2023-12-07T14:41:02;2.60;99.90
37646;DHT22;23489;49.600;6.138;2023-12-07T14:43:29;2.60;99.90
37646;DHT22;23489;49.600;6.138;2023-12-07T14:45:55;2.60;99.90
37646;DHT22;23489;49.600;6.138;2023-12-07T14:48:20;2.50;99.90
37646;DHT22;23489;49.600;6.138;2023-12-07T14:50:46;2.60;99.90
37646;DHT22;23489;49.600;6.138;2023-12-07T14:53:12;2.60;99.90
37646;DHT22;23489;49.600;6.138;2023-12-07T14:55:37;2.50;99.90
37646;DHT22;23489;49.600;6.138;2023-12-07T14:58:03;2.50;99.90
37646;DHT22;23489;49.600;6.138;2023-12-07T15:00:29;2.50;99.90
37646;DHT22;23489;49.600;6.138;2023-12-07T15:02:54;2.40;99.90
37646;DHT22;23489;49.600;6.138;2023-12-07T15:05:21;2.40;99.90
37646;DHT22;23489;49.600;6.138;2023-12-07T15:07:47;2.40;99.90
37646;DHT22;23489;49.600;6.138;2023-12-07T15:10:13;2.40;99.90
37646;DHT22;23489;49.600;6.138;2023-12-07T15:12:39;2.40;99.90
37646;DHT22;23489;49.600;6.138;2023-12-07T15:15:06;2.40;99.90
37646;DHT22;23489;49.600;6.138;2023-12-07T15:17:32;2.40;99.90
37646;DHT22;23489;49.600;6.138;2023-12-07T15:19:58;2.50;99.90
37646;DHT22;23489;49.600;6.138;2023-12-07T15:22:23;2.50;99.90
37646;DHT22;23489;49.600;6.138;2023-12-07T15:24:49;2.50;99.90
37646;DHT22;23489;49.600;6.138;2023-12-07T15:27:15;2.50;99.90
37646;DHT22;23489;49.600;6.138;2023-12-07T15:29:40;2.50;99.90
37646;DHT22;23489;49.600;6.138;2023-12-07T15:32:08;2.40;99.90
37646;DHT22;23489;49.600;6.138;2023-12-07T15:34:35;2.40;99.90
37646;DHT22;23489;49.600;6.138;2023-12-07T15:37:00;2.40;99.90
37646;DHT22;23489;49.600;6.138;2023-12-07T15:39:26;2.30;99.90
37646;DHT22;23489;49.600;6.138;2023-12-07T15:41:52;2.30;99.90
37646;DHT22;23489;49.600;6.138;2023-12-07T15:44:17;2.30;99.90
37646;DHT22;23489;49.600;6.138;2023-12-07T15:46:43;2.30;99.90